Stockton, CA

5:10 PM PDT on October 21, 2014 (GMT -0700)
Lathrop-Stonebridge | Change Station
CLOSE
Current Station
Personal Weather Station
Location: Lathrop, CA
Elevation: 3 ft
Nearby Weather Stations

Elev 3 ft 37.84 °N, 121.28 °W | Updated 2 minutes ago

Clear
Clear
71.8 °F
Feels Like 77 °F
N
4.4
Wind Variable Wind from NNW
Gusts 4.7 mph

Today
High -- | Low -- °F
--% Chance of Precip.
Yesterday
High -- | Low -- °F
Precip. -- in
7:19 AM 6:19 PM
Waning Crescent, 4% visible
Pressure 29.99 in
Visibility 10.0 miles
Clouds Clear
Heat Index 77 °F
Dew Point 42 °F
Humidity 34%
Rainfall 0.00 in
Snow Depth Not available.
UV 1 out of 12
Pollen 3.70 out of 12
PM2.5 Good
Flu Activity Sporadic
METAR KSCK 212355Z 33010G18KT 10SM CLR 22/05 A2999 RMK AO2 SLP154 T02220050 10233 20183 56012

More Conditions Fewer Conditions

Pressure 29.99 in
Visibility 10.0 miles
Clouds Clear
Heat Index 77 °F
Dew Point 42 °F
Humidity 34%
Rainfall 0.00 in
Snow Depth Not available.
UV 1 out of 12
Pollen 3.70 out of 12
PM2.5 Good
Flu Activity Sporadic
METAR KSCK 212355Z 33010G18KT 10SM CLR 22/05 A2999 RMK AO2 SLP154 T02220050 10233 20183 56012

More Conditions Fewer Conditions

10-Day Weather Forecast

Almanac

Astronomy

Oct. 21, 2014 Rise Set
Actual Time 7:19 AM PDT 6:19 PM PDT
Civil Twilight 6:52 AM PDT 6:45 PM PDT
Nautical Twilight 6:21 AM PDT 7:16 PM PDT
Astronomical Twilight 5:51 AM PDT 7:46 PM PDT
Moon 5:10 AM PDT (10/21) 5:14 PM PDT (10/21)
Length of Visible Light 11h 53m
Length of Day
10h 59m
Tomorrow will be 2m 17s shorter.
Waning Crescent, 4% of the Moon is Illuminated
Today
Waning Crescent
Oct 23
New
Oct 30
First Quarter
Nov 6
Full
Nov 14
Last Quarter

Today's Extremes

State Highs State Lows

Community

WunderPhotos

Upload Photos

1,763,826 photos uploaded!

Nearby

Air Quality

  Air Quality AQ Index Pollutant
Yesterday Good
OZONE
Yesterday Good
PM2.5
Current Good
PM2.5
Tuesday Moderate
PM10
Wednesday Good
OZONE
Thursday Good
OZONE
Friday Good
OZONE
Saturday Good
OZONE
Sunday Good
OZONE

Snow Depth

Station Depth Elevation
Echo Peak 0 in 7800 ft
Leavitt Meadows 0 in 7200 ft
Ward Creek #3 1 in 6750 ft
Adin Mountain 1 in 6200 ft

Earthquake Activity

City Distance Mag. Time & Date
Smith Valley, Nevada 110 miles 2.9 10:59 AM PDT
2014-10-18
, 46 miles 2.6 8:00 AM PDT
2014-10-18
Minimum magnitude displayed is 2.5.

Coastal Water Temperatures

Place Temperature
San Francisco, CA 63.0 °F
Richmond, CA 64.0 °F
Port Chicago, CA 66.9 °F

Nearby Weather Stations